Time;durP1;ratioP1;P1;durP2;ratioP2;P2;SDS_P1;SDS_P2;PMS_P1;PMS_P2;Temp;Humidity;BMP_temperature;BMP_pressure;BME280_temperature;BME280_humidity;BME280_pressure;Samples;Min_cycle;Max_cycle;Signal;HPM_P1;HPM_P2
2023/07/08 00:00:43;;;;;;;4.70;3.65;;;21.70;99.90;;;;;;5016303;28;20121;-84
2023/07/08 00:03:09;;;;;;;5.10;4.28;;;21.70;99.90;;;;;;5016073;28;20108;-85
2023/07/08 00:05:36;;;;;;;4.45;4.05;;;21.70;99.90;;;;;;5015104;28;20113;-84
2023/07/08 00:08:01;;;;;;;4.50;4.05;;;21.70;99.90;;;;;;5018095;28;20101;-84
2023/07/08 00:10:29;;;;;;;4.88;4.18;;;21.60;99.90;;;;;;5001795;28;20049;-84
2023/07/08 00:12:57;;;;;;;4.95;4.40;;;21.70;99.90;;;;;;5001592;28;20821;-84
2023/07/08 00:15:27;;;;;;;4.78;4.20;;;21.60;99.90;;;;;;5021340;28;20121;-84
2023/07/08 00:17:53;;;;;;;5.38;4.03;;;21.60;99.90;;;;;;5018522;28;20029;-84
2023/07/08 00:20:32;;;;;;;4.78;4.05;;;21.60;99.90;;;;;;5003838;28;20034;-84
2023/07/08 00:23:00;;;;;;;4.55;3.58;;;21.60;99.90;;;;;;5006391;28;20030;-84
2023/07/08 00:25:26;;;;;;;4.85;4.22;;;21.50;99.90;;;;;;5026686;28;20028;-84
2023/07/08 00:27:52;;;;;;;5.07;4.07;;;21.50;99.90;;;;;;5015537;28;20394;-84
2023/07/08 00:30:22;;;;;;;4.75;4.22;;;21.40;99.90;;;;;;5007837;28;20109;-84
2023/07/08 00:32:53;;;;;;;4.67;4.03;;;21.40;99.90;;;;;;4992049;28;20031;-84
2023/07/08 00:35:41;;;;;;;4.80;4.35;;;21.40;99.90;;;;;;5015537;28;20018;-84
2023/07/08 00:38:20;;;;;;;6.53;4.80;;;21.30;99.90;;;;;;5013943;28;20100;-83
2023/07/08 00:40:58;;;;;;;5.25;4.57;;;21.20;99.90;;;;;;5026847;28;20022;-84
2023/07/08 00:43:55;;;;;;;4.68;4.10;;;21.20;99.90;;;;;;5028771;28;20029;-83
2023/07/08 00:46:27;;;;;;;5.47;4.30;;;21.20;99.90;;;;;;5014531;28;20033;-84
2023/07/08 00:49:03;;;;;;;4.60;4.10;;;21.20;99.90;;;;;;5018980;28;20029;-83
2023/07/08 00:51:28;;;;;;;4.38;3.78;;;21.20;99.90;;;;;;5011053;28;20030;-83
2023/07/08 00:53:54;;;;;;;4.25;3.63;;;21.20;99.90;;;;;;5010555;28;20049;-84
2023/07/08 00:56:30;;;;;;;4.10;3.70;;;21.20;99.90;;;;;;5009982;28;20050;-84
2023/07/08 00:59:08;;;;;;;3.67;3.38;;;21.20;99.90;;;;;;4994641;28;20125;-84
2023/07/08 01:01:37;;;;;;;3.47;3.15;;;21.20;99.90;;;;;;5011065;28;20414;-84
2023/07/08 01:04:11;;;;;;;4.30;3.30;;;21.20;99.90;;;;;;5010806;28;20113;-84
2023/07/08 01:06:41;;;;;;;3.58;3.28;;;21.20;99.90;;;;;;5010973;28;20030;-84
2023/07/08 01:09:10;;;;;;;3.93;3.53;;;21.20;99.90;;;;;;5010918;28;20029;-85
2023/07/08 01:11:37;;;;;;;4.95;4.32;;;21.20;99.90;;;;;;5009939;28;20034;-84
2023/07/08 01:14:07;;;;;;;4.30;3.90;;;21.20;99.90;;;;;;5010482;28;20026;-84
2023/07/08 01:16:33;;;;;;;4.30;3.90;;;21.30;99.90;;;;;;5010696;28;20029;-84
2023/07/08 01:19:00;;;;;;;4.13;3.72;;;21.30;99.90;;;;;;5010615;28;20026;-84
2023/07/08 01:21:33;;;;;;;4.50;4.10;;;21.30;99.90;;;;;;4992999;28;20498;-84
2023/07/08 01:24:01;;;;;;;5.32;4.82;;;21.30;99.90;;;;;;5010275;28;20030;-84
2023/07/08 01:26:29;;;;;;;4.70;4.30;;;21.30;99.90;;;;;;5010159;28;20034;-84
2023/07/08 01:28:56;;;;;;;4.40;4.00;;;21.40;99.90;;;;;;5010397;28;20026;-84
2023/07/08 01:31:23;;;;;;;4.72;4.22;;;21.40;99.90;;;;;;5010827;28;20080;-84
2023/07/08 01:33:50;;;;;;;4.25;3.85;;;21.40;99.90;;;;;;5010216;28;20117;-84
2023/07/08 01:36:17;;;;;;;7.13;4.75;;;21.40;99.90;;;;;;5010595;28;20022;-84
2023/07/08 01:38:44;;;;;;;4.97;4.30;;;21.40;99.90;;;;;;5010139;28;20080;-84
2023/07/08 01:41:15;;;;;;;4.63;4.05;;;21.40;99.90;;;;;;5010125;28;20022;-84
2023/07/08 01:43:41;;;;;;;4.75;4.28;;;21.40;99.90;;;;;;5010570;28;20022;-84
2023/07/08 01:46:23;;;;;;;4.20;3.80;;;21.40;99.90;;;;;;5010056;28;20019;-84
2023/07/08 01:48:54;;;;;;;5.22;4.20;;;21.40;99.90;;;;;;5010119;28;20124;-84
2023/07/08 01:51:21;;;;;;;4.75;4.03;;;21.40;99.90;;;;;;5010133;28;20032;-84
2023/07/08 01:53:47;;;;;;;4.50;4.10;;;21.50;99.90;;;;;;5009800;28;20113;-84
2023/07/08 01:56:14;;;;;;;4.40;4.00;;;21.50;99.90;;;;;;4994479;28;20411;-84
2023/07/08 01:58:41;;;;;;;4.18;3.72;;;21.50;99.90;;;;;;5010035;28;20034;-84
2023/07/08 02:01:08;;;;;;;4.20;3.80;;;21.50;99.90;;;;;;5010393;28;20027;-84
2023/07/08 02:03:34;;;;;;;5.13;4.63;;;21.50;99.90;;;;;;4994901;28;20026;-84
2023/07/08 02:06:00;;;;;;;4.60;4.20;;;21.50;99.90;;;;;;5009952;28;20027;-84
2023/07/08 02:08:25;;;;;;;4.22;3.83;;;21.50;99.90;;;;;;5009741;28;20026;-84
2023/07/08 02:10:57;;;;;;;4.28;3.88;;;21.50;99.90;;;;;;5009788;28;20026;-84
2023/07/08 02:13:23;;;;;;;4.50;4.05;;;21.50;99.90;;;;;;5009790;28;20061;-84
2023/07/08 02:15:50;;;;;;;4.55;4.15;;;21.50;99.90;;;;;;4994700;28;20492;-84
2023/07/08 02:18:18;;;;;;;5.80;3.80;;;21.50;99.90;;;;;;5009776;28;20026;-84
2023/07/08 02:20:44;;;;;;;4.20;3.80;;;21.50;99.90;;;;;;5009496;28;20033;-84
2023/07/08 02:23:11;;;;;;;3.90;3.50;;;21.50;99.90;;;;;;4993178;28;20592;-84
2023/07/08 02:25:37;;;;;;;4.10;3.70;;;21.50;99.90;;;;;;5009381;28;20397;-84
2023/07/08 02:28:03;;;;;;;4.63;4.22;;;21.50;99.90;;;;;;5009178;28;20038;-84
2023/07/08 02:30:29;;;;;;;4.10;3.70;;;21.50;99.90;;;;;;5009025;28;20031;-84
2023/07/08 02:32:57;;;;;;;4.80;4.30;;;21.50;99.90;;;;;;5009169;28;20018;-84
2023/07/08 02:35:26;;;;;;;4.07;3.67;;;21.60;99.90;;;;;;4993933;28;20393;-84
2023/07/08 02:37:52;;;;;;;4.05;3.65;;;21.60;99.90;;;;;;4992806;28;20410;-84
2023/07/08 02:40:18;;;;;;;4.60;3.38;;;21.60;99.90;;;;;;5008894;28;20033;-84
2023/07/08 02:42:44;;;;;;;3.90;3.60;;;21.50;99.90;;;;;;5008993;28;20105;-84
2023/07/08 02:45:10;;;;;;;4.18;3.78;;;21.60;99.90;;;;;;5008902;28;20090;-84
2023/07/08 02:47:36;;;;;;;4.82;4.32;;;21.50;99.90;;;;;;4992387;28;20568;-84
2023/07/08 02:50:02;;;;;;;4.50;4.10;;;21.50;99.90;;;;;;5008730;28;20065;-84
2023/07/08 02:52:27;;;;;;;4.47;4.07;;;21.50;99.90;;;;;;4993661;28;20042;-84
2023/07/08 02:54:53;;;;;;;4.35;3.95;;;21.60;99.90;;;;;;5008514;28;20030;-84
2023/07/08 02:57:19;;;;;;;5.20;4.10;;;21.50;99.90;;;;;;4992321;28;20137;-84
2023/07/08 02:59:44;;;;;;;4.22;3.78;;;21.50;99.90;;;;;;5008702;28;20397;-84
2023/07/08 03:02:10;;;;;;;4.30;3.90;;;21.50;99.90;;;;;;5008511;28;20117;-84
2023/07/08 03:04:39;;;;;;;5.47;4.38;;;21.50;99.90;;;;;;5008436;28;20078;-84
2023/07/08 03:07:11;;;;;;;4.07;3.65;;;21.50;99.90;;;;;;5007559;28;20030;-84
2023/07/08 03:09:37;;;;;;;4.57;3.17;;;21.50;99.90;;;;;;5008570;28;20034;-84
2023/07/08 03:12:03;;;;;;;4.30;3.90;;;21.50;99.90;;;;;;5008444;28;20018;-84
2023/07/08 03:14:28;;;;;;;4.30;3.90;;;21.50;99.90;;;;;;4993224;28;20435;-84
2023/07/08 03:16:54;;;;;;;3.60;3.30;;;21.50;99.90;;;;;;5008245;28;20030;-84
2023/07/08 03:19:20;;;;;;;4.15;3.75;;;21.50;99.90;;;;;;5008201;28;20026;-84
2023/07/08 03:21:45;;;;;;;4.38;3.97;;;21.50;99.90;;;;;;4993420;28;20496;-84
2023/07/08 03:24:13;;;;;;;4.70;3.85;;;21.50;99.90;;;;;;4991561;28;20031;-84
2023/07/08 03:26:39;;;;;;;3.90;3.42;;;21.50;99.90;;;;;;5007800;28;20478;-85
2023/07/08 03:29:17;;;;;;;4.40;3.90;;;21.50;99.90;;;;;;5007894;28;20025;-84
2023/07/08 03:31:44;;;;;;;3.58;3.25;;;21.50;99.90;;;;;;5018345;28;20093;-92
2023/07/08 03:34:15;;;;;;;4.13;3.47;;;21.50;99.90;;;;;;5017514;28;20025;-90
2023/07/08 03:36:49;;;;;;;3.20;2.90;;;21.50;99.90;;;;;;5017194;28;20026;-91
2023/07/08 03:39:20;;;;;;;3.40;3.10;;;21.50;99.90;;;;;;5014770;28;20026;-91
2023/07/08 03:41:47;;;;;;;3.67;3.38;;;21.50;99.90;;;;;;5014478;28;20085;-91
2023/07/08 03:44:15;;;;;;;4.13;3.40;;;21.50;99.90;;;;;;5013768;28;20036;-91
2023/07/08 03:46:42;;;;;;;3.65;3.35;;;21.50;99.90;;;;;;5014132;28;20030;-88
2023/07/08 03:49:09;;;;;;;3.45;3.15;;;21.50;99.90;;;;;;5012611;28;20587;-88
2023/07/08 03:51:39;;;;;;;3.53;3.13;;;21.50;99.90;;;;;;5019172;28;20037;-88
2023/07/08 03:54:06;;;;;;;3.67;3.10;;;21.50;99.90;;;;;;5003951;28;20046;-87
2023/07/08 03:56:32;;;;;;;3.45;3.15;;;21.50;99.90;;;;;;5011992;28;20022;-87
2023/07/08 03:58:58;;;;;;;4.07;3.67;;;21.50;99.90;;;;;;5033512;28;20022;-88
2023/07/08 04:01:25;;;;;;;3.45;3.10;;;21.50;99.90;;;;;;5035840;28;20481;-90
2023/07/08 04:03:54;;;;;;;3.97;3.50;;;21.50;99.90;;;;;;5018971;28;20034;-88
2023/07/08 04:06:21;;;;;;;3.45;3.10;;;21.50;99.90;;;;;;5022409;28;20090;-87
2023/07/08 04:08:47;;;;;;;3.45;3.03;;;21.50;99.90;;;;;;5033129;28;20041;-89
2023/07/08 04:11:15;;;;;;;3.05;2.75;;;21.50;99.90;;;;;;5042904;23;20049;-88
2023/07/08 04:13:41;;;;;;;3.22;2.70;;;21.50;99.90;;;;;;5039786;28;20148;-88
2023/07/08 04:16:08;;;;;;;3.00;2.50;;;21.50;99.90;;;;;;5016821;28;20010;-88
2023/07/08 04:18:36;;;;;;;2.80;2.60;;;21.50;99.90;;;;;;5034975;28;20066;-88
2023/07/08 04:21:02;;;;;;;2.72;2.53;;;21.50;99.90;;;;;;5031521;28;19999;-89
2023/07/08 04:23:27;;;;;;;2.58;2.38;;;21.50;99.90;;;;;;5028360;28;20034;-89
2023/07/08 04:25:55;;;;;;;2.60;2.40;;;21.50;99.90;;;;;;5013712;28;20022;-88
2023/07/08 04:28:21;;;;;;;2.45;2.25;;;21.60;99.90;;;;;;5026645;28;20069;-90
2023/07/08 04:30:48;;;;;;;2.85;2.45;;;21.60;99.90;;;;;;5024403;28;20029;-88
2023/07/08 04:33:15;;;;;;;2.40;2.20;;;21.60;99.90;;;;;;5027131;28;20086;-89
2023/07/08 04:35:43;;;;;;;2.53;2.20;;;21.60;99.90;;;;;;5012018;28;20031;-87
2023/07/08 04:38:21;;;;;;;2.50;2.30;;;21.70;99.90;;;;;;5024509;28;20090;-89
2023/07/08 04:40:47;;;;;;;2.72;2.13;;;21.70;99.90;;;;;;5009920;28;20085;-89
2023/07/08 04:43:14;;;;;;;3.50;2.00;;;21.60;99.90;;;;;;5026609;28;20103;-88
2023/07/08 04:45:42;;;;;;;2.58;2.38;;;21.70;99.90;;;;;;5029687;28;20014;-88
2023/07/08 04:48:13;;;;;;;2.35;2.20;;;21.70;99.90;;;;;;5014381;28;20078;-89
2023/07/08 04:50:44;;;;;;;2.70;2.50;;;21.70;99.90;;;;;;5029156;28;20022;-89
2023/07/08 04:53:11;;;;;;;2.78;2.42;;;21.80;99.90;;;;;;5013056;28;20035;-88
2023/07/08 04:55:40;;;;;;;2.70;2.50;;;21.80;99.90;;;;;;5012947;28;20018;-89
2023/07/08 04:58:06;;;;;;;2.28;2.08;;;21.80;99.90;;;;;;5030184;28;20069;-88
2023/07/08 05:00:31;;;;;;;2.63;2.42;;;21.80;99.90;;;;;;5014552;28;20078;-89
2023/07/08 05:02:57;;;;;;;2.88;2.67;;;21.80;99.90;;;;;;5015043;28;20401;-88
2023/07/08 05:05:23;;;;;;;2.90;2.70;;;21.80;99.90;;;;;;5027828;28;20034;-88
2023/07/08 05:07:49;;;;;;;3.30;3.00;;;21.80;99.90;;;;;;4998293;28;20092;-89
2023/07/08 05:10:15;;;;;;;3.00;2.80;;;21.80;99.90;;;;;;5013850;28;20044;-90
2023/07/08 05:12:42;;;;;;;3.65;3.22;;;21.80;99.90;;;;;;5014979;28;20042;-88
2023/07/08 05:15:08;;;;;;;3.70;3.20;;;21.80;99.90;;;;;;5014852;28;20038;-88
2023/07/08 05:17:34;;;;;;;2.97;2.75;;;21.80;99.90;;;;;;4998978;28;20101;-89
2023/07/08 05:20:00;;;;;;;10.38;8.52;;;21.80;99.90;;;;;;5013752;28;20050;-89
2023/07/08 05:22:29;;;;;;;7.20;5.97;;;21.90;99.90;;;;;;4998505;28;20030;-89
2023/07/08 05:24:55;;;;;;;5.50;4.68;;;21.80;99.90;;;;;;5012687;28;20042;-90
2023/07/08 05:27:22;;;;;;;5.13;4.13;;;21.90;99.90;;;;;;5015365;28;20038;-89
2023/07/08 05:29:48;;;;;;;4.30;3.90;;;21.90;99.90;;;;;;5012670;28;20030;-90
2023/07/08 05:32:14;;;;;;;3.97;3.58;;;21.90;99.90;;;;;;5017571;28;20019;-88
2023/07/08 05:34:40;;;;;;;4.18;3.67;;;21.90;99.90;;;;;;5017069;28;20553;-89
2023/07/08 05:37:06;;;;;;;3.88;3.45;;;21.90;99.90;;;;;;5017568;28;20061;-89
2023/07/08 05:39:32;;;;;;;4.30;3.90;;;21.90;99.90;;;;;;5018075;28;20502;-88
2023/07/08 05:41:58;;;;;;;4.22;3.70;;;21.90;99.90;;;;;;5018294;28;20038;-89
2023/07/08 05:44:24;;;;;;;4.20;3.80;;;22.00;99.90;;;;;;5003903;28;20462;-90
2023/07/08 05:46:50;;;;;;;4.15;3.75;;;22.00;99.90;;;;;;5003320;28;20022;-90
2023/07/08 05:49:16;;;;;;;4.20;3.80;;;22.00;99.90;;;;;;5019825;28;20057;-88
2023/07/08 05:51:44;;;;;;;4.53;4.10;;;22.00;99.90;;;;;;5020946;28;20053;-90
2023/07/08 05:54:10;;;;;;;5.10;4.10;;;22.10;99.90;;;;;;5020567;28;20029;-90
2023/07/08 05:56:35;;;;;;;4.32;3.92;;;22.10;99.90;;;;;;5003403;28;20036;-88
2023/07/08 05:59:01;;;;;;;4.38;3.97;;;22.10;99.90;;;;;;5016819;28;20026;-88
2023/07/08 06:01:27;;;;;;;4.60;4.10;;;22.10;99.90;;;;;;4986307;28;20022;-89
2023/07/08 06:03:53;;;;;;;4.88;4.38;;;22.20;99.90;;;;;;4985164;28;20034;-87
2023/07/08 06:06:18;;;;;;;4.35;3.95;;;22.20;99.90;;;;;;4999586;28;20033;-89
2023/07/08 06:08:44;;;;;;;4.80;4.30;;;22.30;99.90;;;;;;4990233;28;20893;-88
2023/07/08 06:11:10;;;;;;;5.25;4.53;;;22.40;99.90;;;;;;4989922;28;20049;-90
2023/07/08 06:13:35;;;;;;;4.80;4.35;;;22.50;99.90;;;;;;5002954;28;20042;-90
2023/07/08 06:16:01;;;;;;;5.05;4.55;;;22.50;99.90;;;;;;4978086;28;20034;-90
2023/07/08 06:18:27;;;;;;;4.68;4.15;;;22.70;99.90;;;;;;4989090;28;20042;-89
2023/07/08 06:20:57;;;;;;;6.20;4.72;;;22.80;99.90;;;;;;4975295;28;20203;-90
2023/07/08 06:23:24;;;;;;;4.70;4.10;;;22.90;99.90;;;;;;4994403;28;20034;-88
2023/07/08 06:25:50;;;;;;;4.82;4.28;;;22.90;99.90;;;;;;4982016;28;20062;-89
2023/07/08 06:28:16;;;;;;;4.72;4.22;;;23.00;99.90;;;;;;4979281;28;20084;-88
2023/07/08 06:30:42;;;;;;;4.60;4.07;;;23.10;99.90;;;;;;4974817;28;20146;-88
2023/07/08 06:33:07;;;;;;;5.60;5.10;;;23.30;99.90;;;;;;5004192;28;20062;-88
2023/07/08 06:35:33;;;;;;;5.97;4.50;;;23.40;99.90;;;;;;5012008;28;20038;-88
2023/07/08 06:37:59;;;;;;;6.00;4.75;;;23.50;99.90;;;;;;5014217;28;20056;-88
2023/07/08 06:40:26;;;;;;;4.93;4.43;;;23.70;99.90;;;;;;5006611;23;20054;-87
2023/07/08 06:42:52;;;;;;;5.35;4.63;;;23.80;99.90;;;;;;4980348;28;20065;-87
2023/07/08 06:45:17;;;;;;;4.90;4.40;;;23.90;99.90;;;;;;4958159;28;20570;-86
2023/07/08 06:47:43;;;;;;;5.72;5.15;;;24.00;99.90;;;;;;4963412;28;20111;-88
2023/07/08 06:50:09;;;;;;;5.45;4.95;;;24.10;99.90;;;;;;4959524;28;20027;-89
2023/07/08 06:52:36;;;;;;;4.88;4.40;;;24.20;99.80;;;;;;4978300;28;20125;-91
2023/07/08 06:55:07;;;;;;;5.60;5.10;;;24.20;99.00;;;;;;4961819;28;20571;-85
2023/07/08 06:57:33;;;;;;;5.63;5.10;;;24.30;98.80;;;;;;4979126;28;20030;-88
2023/07/08 06:59:59;;;;;;;5.70;5.20;;;24.30;98.20;;;;;;4979123;28;20053;-85
2023/07/08 07:02:26;;;;;;;5.32;4.82;;;24.30;97.90;;;;;;4983551;28;20034;-89
2023/07/08 07:04:51;;;;;;;6.90;5.00;;;24.30;97.80;;;;;;4967769;28;20065;-87
2023/07/08 07:07:17;;;;;;;5.90;5.30;;;24.40;96.80;;;;;;4966483;28;20499;-85
2023/07/08 07:09:43;;;;;;;5.35;4.85;;;24.20;96.10;;;;;;4968837;28;20027;-89
2023/07/08 07:12:09;;;;;;;5.60;5.10;;;24.10;96.30;;;;;;4969535;28;20033;-90
2023/07/08 07:14:34;;;;;;;6.07;5.47;;;24.00;96.40;;;;;;4970598;28;20034;-90
2023/07/08 07:17:00;;;;;;;5.45;4.95;;;23.90;96.60;;;;;;4969695;28;20101;-84
2023/07/08 07:19:26;;;;;;;5.70;5.10;;;23.80;96.90;;;;;;4969827;28;20019;-87
2023/07/08 07:21:52;;;;;;;6.47;5.88;;;23.70;97.10;;;;;;4985600;28;20031;-87
2023/07/08 07:24:18;;;;;;;6.22;5.45;;;23.60;97.40;;;;;;4970781;28;20150;-88
2023/07/08 07:26:44;;;;;;;6.05;5.55;;;23.60;97.60;;;;;;4971404;28;20114;-87
2023/07/08 07:29:10;;;;;;;5.90;5.32;;;23.50;97.90;;;;;;4972104;28;20034;-89
2023/07/08 07:31:36;;;;;;;6.20;5.60;;;23.50;98.00;;;;;;4971613;28;20391;-87
2023/07/08 07:34:02;;;;;;;6.38;5.78;;;23.50;98.20;;;;;;4987899;28;20466;-88
2023/07/08 07:36:28;;;;;;;6.50;5.80;;;23.50;98.00;;;;;;4972352;28;20073;-90
2023/07/08 07:38:54;;;;;;;6.75;6.05;;;23.50;98.00;;;;;;4970699;28;20410;-88
2023/07/08 07:41:20;;;;;;;6.57;5.97;;;23.40;98.10;;;;;;4986260;28;20025;-88
2023/07/08 07:43:46;;;;;;;7.13;6.43;;;23.30;98.00;;;;;;4986684;28;20027;-88
2023/07/08 07:46:15;;;;;;;6.55;5.90;;;23.30;98.20;;;;;;4970548;28;20023;-88
2023/07/08 07:48:42;;;;;;;6.93;6.22;;;23.30;98.30;;;;;;4972034;28;20031;-89
2023/07/08 07:51:10;;;;;;;6.90;6.20;;;23.30;98.30;;;;;;4969854;28;20027;-89
2023/07/08 07:53:37;;;;;;;6.63;6.03;;;23.30;98.40;;;;;;4969976;28;20090;-88
2023/07/08 07:56:04;;;;;;;6.13;5.53;;;23.30;98.40;;;;;;4973361;28;20402;-89
2023/07/08 07:58:30;;;;;;;7.70;6.78;;;23.20;98.50;;;;;;4973264;28;20031;-89
2023/07/08 08:00:56;;;;;;;6.82;6.18;;;23.20;98.70;;;;;;4988317;28;20398;-88
2023/07/08 08:03:22;;;;;;;7.18;6.47;;;23.20;98.60;;;;;;4973230;28;20113;-88
2023/07/08 08:05:48;;;;;;;7.20;6.50;;;23.20;98.80;;;;;;4971863;28;20097;-89
2023/07/08 08:08:14;;;;;;;6.95;6.25;;;23.20;98.80;;;;;;4971944;28;20041;-89
2023/07/08 08:10:40;;;;;;;6.90;6.15;;;23.20;99.00;;;;;;4971825;28;20026;-87
2023/07/08 08:13:05;;;;;;;6.78;6.07;;;23.20;98.80;;;;;;4973252;28;20019;-89
2023/07/08 08:15:31;;;;;;;6.28;5.65;;;23.20;98.70;;;;;;4972301;28;20050;-90
2023/07/08 08:18:00;;;;;;;5.50;4.85;;;23.20;98.30;;;;;;4957115;28;20340;-89
2023/07/08 08:20:26;;;;;;;6.72;5.90;;;23.20;97.70;;;;;;4972730;28;20113;-89
2023/07/08 08:22:52;;;;;;;5.40;4.90;;;23.10;97.50;;;;;;4972523;28;20129;-89
2023/07/08 08:25:20;;;;;;;5.20;4.70;;;23.10;97.60;;;;;;4972990;28;20027;-88
2023/07/08 08:27:45;;;;;;;4.55;4.15;;;23.10;98.00;;;;;;4972155;28;20034;-89
2023/07/08 08:30:12;;;;;;;4.88;4.30;;;23.10;97.70;;;;;;4973163;28;20057;-88
2023/07/08 08:32:38;;;;;;;7.25;5.07;;;23.10;97.40;;;;;;4972822;28;20031;-88
2023/07/08 08:35:04;;;;;;;5.88;5.28;;;23.10;97.20;;;;;;4972214;28;20038;-88
2023/07/08 08:37:30;;;;;;;5.80;5.20;;;23.10;97.00;;;;;;4988493;28;20037;-89
2023/07/08 08:39:55;;;;;;;6.15;5.53;;;23.10;96.80;;;;;;4971719;28;20424;-89
2023/07/08 08:42:34;;;;;;;5.97;5.35;;;23.10;96.80;;;;;;4988367;28;20030;-90
2023/07/08 08:45:02;;;;;;;5.75;5.15;;;23.10;97.10;;;;;;4973113;28;20050;-90
2023/07/08 08:47:30;;;;;;;5.05;4.55;;;23.10;97.30;;;;;;4972458;28;20027;-87
2023/07/08 08:50:11;;;;;;;7.20;5.72;;;23.10;97.20;;;;;;4971526;28;20043;-88
2023/07/08 08:52:40;;;;;;;5.57;5.00;;;23.10;97.00;;;;;;4972095;28;20027;-89
2023/07/08 08:55:14;;;;;;;5.35;4.82;;;23.20;96.90;;;;;;4971319;28;20085;-88
2023/07/08 08:57:59;;;;;;;6.00;5.22;;;23.20;96.80;;;;;;4971296;28;20042;-89
2023/07/08 09:00:56;;;;;;;5.82;5.22;;;23.20;96.40;;;;;;4972878;28;20023;-86
2023/07/08 09:03:54;;;;;;;5.90;5.30;;;23.20;96.50;;;;;;4985613;28;20039;-89
2023/07/08 09:06:25;;;;;;;5.57;5.07;;;23.20;96.30;;;;;;4975735;28;20030;-89
2023/07/08 09:08:57;;;;;;;5.70;5.05;;;23.20;96.30;;;;;;4973593;28;20332;-89
2023/07/08 09:11:44;;;;;;;5.30;4.60;;;23.20;96.40;;;;;;4974755;28;20038;-89
2023/07/08 09:14:34;;;;;;;6.50;4.50;;;23.30;96.40;;;;;;4974149;28;20050;-87
2023/07/08 09:17:21;;;;;;;6.03;5.38;;;23.30;96.40;;;;;;4960923;28;20038;-87
2023/07/08 09:20:03;;;;;;;5.32;4.55;;;23.30;96.10;;;;;;4972915;28;20045;-88
2023/07/08 09:22:44;;;;;;;5.97;5.38;;;23.30;95.90;;;;;;4974241;28;20075;-88
2023/07/08 09:25:28;;;;;;;5.65;5.05;;;23.40;96.20;;;;;;4974445;28;20397;-90
2023/07/08 09:27:55;;;;;;;6.40;4.93;;;23.40;95.80;;;;;;4974628;28;20041;-90
2023/07/08 09:30:23;;;;;;;5.90;5.30;;;23.50;95.90;;;;;;4975489;28;20022;-89
2023/07/08 09:32:49;;;;;;;6.15;5.47;;;23.60;95.40;;;;;;4974100;28;20027;-88
2023/07/08 09:35:27;;;;;;;5.85;5.20;;;23.60;95.10;;;;;;4972808;28;20026;-89
2023/07/08 09:37:54;;;;;;;4.95;4.45;;;23.70;94.80;;;;;;4974063;28;20023;-89
2023/07/08 09:40:23;;;;;;;5.20;4.70;;;23.70;94.30;;;;;;4972198;28;20061;-83
2023/07/08 09:42:51;;;;;;;5.43;4.88;;;23.70;93.90;;;;;;4974861;28;20055;-82
2023/07/08 09:45:23;;;;;;;4.68;4.18;;;23.70;93.50;;;;;;4974835;28;20029;-82
2023/07/08 09:47:53;;;;;;;4.63;4.22;;;23.70;93.50;;;;;;4974949;28;20031;-83
2023/07/08 09:50:28;;;;;;;5.03;4.53;;;23.70;92.90;;;;;;4975518;28;20031;-82
2023/07/08 09:52:57;;;;;;;5.05;4.35;;;23.70;92.50;;;;;;4974145;28;20030;-82
2023/07/08 09:55:23;;;;;;;5.82;5.10;;;23.70;92.40;;;;;;4974073;28;20065;-82
2023/07/08 09:57:52;;;;;;;5.05;4.55;;;23.70;92.20;;;;;;4990428;28;20138;-82
2023/07/08 10:00:27;;;;;;;5.15;4.65;;;23.60;92.30;;;;;;4974351;28;20019;-81
2023/07/08 10:02:58;;;;;;;5.40;4.63;;;23.60;92.40;;;;;;4973837;28;20061;-82
2023/07/08 10:05:40;;;;;;;;;;;23.70;92.40;;;;;;4974725;28;20276;-82
2023/07/08 10:08:20;;;;;;;4.72;4.22;;;23.60;92.40;;;;;;4975823;28;20354;-82
2023/07/08 10:11:01;;;;;;;5.90;5.10;;;23.70;92.80;;;;;;4974037;28;20037;-82
2023/07/08 10:13:46;;;;;;;5.85;4.88;;;23.70;92.50;;;;;;4975126;28;20050;-82
2023/07/08 10:16:32;;;;;;;6.13;5.53;;;23.70;92.10;;;;;;4973631;28;20023;-82
2023/07/08 10:18:59;;;;;;;5.72;5.07;;;23.70;91.90;;;;;;4975848;28;20027;-82
2023/07/08 10:22:06;;;;;;;6.90;5.63;;;23.70;92.00;;;;;;4973836;28;20056;-82
2023/07/08 10:24:43;;;;;;;6.03;5.43;;;23.70;91.90;;;;;;4961704;28;20039;-81
2023/07/08 10:27:34;;;;;;;6.30;5.70;;;23.70;92.00;;;;;;4972026;28;20023;-81
2023/07/08 10:30:20;;;;;;;6.87;5.90;;;23.60;91.90;;;;;;4972683;28;20026;-81
2023/07/08 10:33:17;;;;;;;6.30;5.70;;;23.60;91.90;;;;;;4972834;28;20027;-81
2023/07/08 10:35:51;;;;;;;7.70;6.20;;;23.60;91.90;;;;;;4973029;28;20431;-81
2023/07/08 10:38:37;;;;;;;6.25;5.65;;;23.60;92.00;;;;;;4972724;28;20030;-81
2023/07/08 10:41:32;;;;;;;7.07;5.78;;;23.60;92.00;;;;;;4973284;28;20049;-81
2023/07/08 10:44:07;;;;;;;6.47;5.80;;;23.50;92.10;;;;;;4973256;28;20542;-81
2023/07/08 10:46:38;;;;;;;6.90;6.20;;;23.50;92.00;;;;;;4972981;28;20077;-81
2023/07/08 10:49:21;;;;;;;6.72;6.03;;;23.50;92.10;;;;;;4972922;28;20507;-81
2023/07/08 10:51:59;;;;;;;7.88;6.07;;;23.50;92.10;;;;;;4971975;28;20114;-81
2023/07/08 10:54:43;;;;;;;6.82;6.13;;;23.40;91.90;;;;;;4971870;28;20327;-81
2023/07/08 10:57:46;;;;;;;6.88;6.18;;;23.30;91.90;;;;;;4968596;28;20037;-81
2023/07/08 11:00:38;;;;;;;7.43;5.68;;;23.30;92.10;;;;;;4953249;28;20094;-81
2023/07/08 11:03:44;;;;;;;7.85;6.55;;;23.20;92.00;;;;;;4970328;28;20121;-81
2023/07/08 11:06:51;;;;;;;6.97;5.90;;;23.20;92.10;;;;;;4970365;28;20054;-81
2023/07/08 11:09:28;;;;;;;6.80;6.07;;;23.20;92.30;;;;;;4969261;28;20121;-81
2023/07/08 11:12:14;;;;;;;6.90;6.05;;;23.10;92.60;;;;;;4984018;28;20035;-81
2023/07/08 11:14:48;;;;;;;6.80;6.07;;;23.10;92.80;;;;;;4970410;28;20031;-82
2023/07/08 11:17:52;;;;;;;7.38;6.57;;;23.20;92.80;;;;;;4970092;28;20482;-81
2023/07/08 11:20:53;;;;;;;7.22;6.45;;;23.20;92.70;;;;;;4971571;28;20057;-82
2023/07/08 11:23:33;;;;;;;6.95;6.13;;;23.20;92.70;;;;;;4948605;28;20057;-82
2023/07/08 11:26:26;;;;;;;7.55;6.75;;;23.20;92.80;;;;;;4987230;28;20029;-82
2023/07/08 11:28:56;;;;;;;7.75;6.68;;;23.30;92.80;;;;;;4970757;28;20433;-82
2023/07/08 11:31:23;;;;;;;7.45;6.57;;;23.30;92.80;;;;;;4972703;28;20073;-83
2023/07/08 11:33:50;;;;;;;7.25;6.40;;;23.40;92.90;;;;;;4971062;28;20033;-82
2023/07/08 11:36:18;;;;;;;7.20;6.45;;;23.50;92.70;;;;;;4970852;28;20019;-82
2023/07/08 11:39:04;;;;;;;8.45;6.63;;;23.50;92.30;;;;;;4974337;28;20035;-82
2023/07/08 11:41:31;;;;;;;7.45;6.65;;;23.50;92.30;;;;;;4990813;28;20027;-82
2023/07/08 11:44:02;;;;;;;7.18;6.28;;;23.50;92.30;;;;;;4990276;28;20355;-82
2023/07/08 11:46:31;;;;;;;7.50;6.60;;;23.50;92.30;;;;;;4992199;28;20534;-82
2023/07/08 11:49:12;;;;;;;7.90;6.70;;;23.50;92.20;;;;;;4992398;28;20034;-82
2023/07/08 11:51:42;;;;;;;8.02;7.05;;;23.50;91.90;;;;;;4992364;28;20359;-82
2023/07/08 11:54:29;;;;;;;8.17;6.93;;;23.50;91.80;;;;;;4989725;28;20019;-82
2023/07/08 11:57:00;;;;;;;7.70;6.90;;;23.40;91.80;;;;;;4989703;28;20263;-82
2023/07/08 11:59:31;;;;;;;7.75;6.93;;;23.40;92.10;;;;;;4990060;28;20030;-83
2023/07/08 12:02:18;;;;;;;8.20;7.20;;;23.40;92.10;;;;;;4991154;28;20030;-82
2023/07/08 12:05:13;;;;;;;7.70;6.90;;;23.40;91.90;;;;;;4990513;28;20062;-82
2023/07/08 12:07:48;;;;;;;7.25;6.55;;;23.40;91.90;;;;;;4990606;28;20169;-82
2023/07/08 12:10:14;;;;;;;8.35;7.10;;;23.40;92.10;;;;;;4991056;28;20034;-81
2023/07/08 12:12:42;;;;;;;8.07;6.85;;;23.40;92.10;;;;;;4992315;28;20072;-81
2023/07/08 12:15:16;;;;;;;8.50;6.50;;;23.40;91.90;;;;;;4992412;28;20026;-81
2023/07/08 12:17:42;;;;;;;7.65;6.85;;;23.30;91.90;;;;;;4992185;28;20490;-80
2023/07/08 12:20:30;;;;;;;7.40;6.60;;;23.30;92.00;;;;;;4974656;28;20037;-81
2023/07/08 12:22:56;;;;;;;7.53;6.38;;;23.30;91.70;;;;;;4992115;28;20061;-81
2023/07/08 12:25:37;;;;;;;7.75;6.95;;;23.30;91.90;;;;;;4975385;28;20027;-82
2023/07/08 12:28:04;;;;;;;8.82;6.55;;;23.30;92.00;;;;;;4992011;28;20034;-80
2023/07/08 12:30:31;;;;;;;6.93;6.18;;;23.30;91.90;;;;;;4990595;28;20118;-81
2023/07/08 12:33:08;;;;;;;7.25;6.55;;;23.30;91.90;;;;;;4991011;28;20030;-82
2023/07/08 12:35:35;;;;;;;7.15;6.40;;;23.20;92.10;;;;;;4992334;28;20026;-81
2023/07/08 12:38:09;;;;;;;8.18;7.13;;;23.20;92.30;;;;;;4991944;28;20117;-81
2023/07/08 12:40:35;;;;;;;7.63;6.80;;;23.20;92.30;;;;;;4994748;28;20058;-82
2023/07/08 12:43:00;;;;;;;7.93;6.72;;;23.20;92.50;;;;;;4979066;28;20390;-82
2023/07/08 12:45:31;;;;;;;8.43;6.68;;;23.10;92.70;;;;;;4994867;28;20072;-81
2023/07/08 12:47:57;;;;;;;9.07;6.80;;;23.20;92.50;;;;;;4994901;28;20030;-82
2023/07/08 12:50:22;;;;;;;8.45;6.72;;;23.20;92.60;;;;;;4962920;28;20113;-82
2023/07/08 12:52:48;;;;;;;7.63;6.32;;;23.20;92.80;;;;;;4994734;28;20114;-82
2023/07/08 12:55:16;;;;;;;10.82;7.20;;;23.20;92.60;;;;;;4994974;28;20583;-82
2023/07/08 12:57:47;;;;;;;7.00;6.25;;;23.20;92.60;;;;;;4996286;28;20034;-86
2023/07/08 13:00:30;;;;;;;6.85;6.13;;;23.30;92.50;;;;;;4978760;28;20121;-82
2023/07/08 13:03:16;;;;;;;7.63;6.82;;;23.30;92.70;;;;;;4980147;28;20035;-82
2023/07/08 13:05:45;;;;;;;7.25;6.45;;;23.30;92.60;;;;;;4976612;28;20030;-82